sensor_id;sensor_type;location;lat;lon;timestamp;P1;durP1;ratioP1;P2;durP2;ratioP2
35530;SDS011;21637;53.352;-6.356;2023-08-01T00:01:57;12.73;;;3.03;;
35530;SDS011;21637;53.352;-6.356;2023-08-01T00:04:23;16.98;;;3.53;;
35530;SDS011;21637;53.352;-6.356;2023-08-01T00:06:48;11.57;;;2.92;;
35530;SDS011;21637;53.352;-6.356;2023-08-01T00:09:14;12.40;;;3.03;;
35530;SDS011;21637;53.352;-6.356;2023-08-01T00:11:40;16.45;;;2.75;;
35530;SDS011;21637;53.352;-6.356;2023-08-01T00:14:05;14.77;;;3.08;;
35530;SDS011;21637;53.352;-6.356;2023-08-01T00:16:31;16.00;;;3.30;;
35530;SDS011;21637;53.352;-6.356;2023-08-01T00:18:58;19.33;;;3.50;;
35530;SDS011;21637;53.352;-6.356;2023-08-01T00:21:23;12.15;;;2.75;;
35530;SDS011;21637;53.352;-6.356;2023-08-01T00:23:49;11.52;;;3.17;;
35530;SDS011;21637;53.352;-6.356;2023-08-01T00:26:15;10.27;;;3.22;;
35530;SDS011;21637;53.352;-6.356;2023-08-01T00:28:40;18.98;;;3.40;;
35530;SDS011;21637;53.352;-6.356;2023-08-01T00:31:06;13.38;;;3.20;;
35530;SDS011;21637;53.352;-6.356;2023-08-01T00:33:36;12.75;;;2.72;;
35530;SDS011;21637;53.352;-6.356;2023-08-01T00:36:02;21.48;;;3.55;;
35530;SDS011;21637;53.352;-6.356;2023-08-01T00:38:27;10.43;;;3.15;;
35530;SDS011;21637;53.352;-6.356;2023-08-01T00:40:53;15.95;;;2.90;;
35530;SDS011;21637;53.352;-6.356;2023-08-01T00:43:19;12.50;;;3.05;;
35530;SDS011;21637;53.352;-6.356;2023-08-01T00:45:45;14.90;;;3.15;;
35530;SDS011;21637;53.352;-6.356;2023-08-01T00:48:11;16.70;;;2.90;;
35530;SDS011;21637;53.352;-6.356;2023-08-01T00:50:37;18.02;;;3.22;;
35530;SDS011;21637;53.352;-6.356;2023-08-01T00:53:04;12.38;;;2.65;;
35530;SDS011;21637;53.352;-6.356;2023-08-01T00:55:31;15.07;;;3.35;;
35530;SDS011;21637;53.352;-6.356;2023-08-01T00:57:59;13.93;;;3.47;;
35530;SDS011;21637;53.352;-6.356;2023-08-01T01:00:25;10.98;;;2.65;;
35530;SDS011;21637;53.352;-6.356;2023-08-01T01:02:51;13.13;;;3.22;;
35530;SDS011;21637;53.352;-6.356;2023-08-01T01:05:17;17.38;;;3.63;;
35530;SDS011;21637;53.352;-6.356;2023-08-01T01:07:43;16.30;;;3.10;;
35530;SDS011;21637;53.352;-6.356;2023-08-01T01:10:09;16.10;;;3.10;;
35530;SDS011;21637;53.352;-6.356;2023-08-01T01:12:35;10.75;;;2.78;;
35530;SDS011;21637;53.352;-6.356;2023-08-01T01:15:00;11.00;;;2.83;;
35530;SDS011;21637;53.352;-6.356;2023-08-01T01:17:27;16.52;;;3.00;;
35530;SDS011;21637;53.352;-6.356;2023-08-01T01:19:52;13.73;;;3.70;;
35530;SDS011;21637;53.352;-6.356;2023-08-01T01:22:19;13.68;;;3.05;;
35530;SDS011;21637;53.352;-6.356;2023-08-01T01:24:45;11.80;;;3.17;;
35530;SDS011;21637;53.352;-6.356;2023-08-01T01:27:13;9.02;;;2.78;;
35530;SDS011;21637;53.352;-6.356;2023-08-01T01:29:40;12.23;;;2.95;;
35530;SDS011;21637;53.352;-6.356;2023-08-01T01:32:08;12.82;;;3.05;;
35530;SDS011;21637;53.352;-6.356;2023-08-01T01:34:34;13.77;;;3.05;;
35530;SDS011;21637;53.352;-6.356;2023-08-01T01:37:00;14.25;;;2.80;;
35530;SDS011;21637;53.352;-6.356;2023-08-01T01:39:26;11.00;;;3.15;;
35530;SDS011;21637;53.352;-6.356;2023-08-01T01:41:51;16.02;;;3.22;;
35530;SDS011;21637;53.352;-6.356;2023-08-01T01:44:17;15.25;;;2.80;;
35530;SDS011;21637;53.352;-6.356;2023-08-01T01:46:43;11.93;;;3.03;;
35530;SDS011;21637;53.352;-6.356;2023-08-01T01:49:08;11.85;;;2.95;;
35530;SDS011;21637;53.352;-6.356;2023-08-01T01:51:34;11.82;;;2.75;;
35530;SDS011;21637;53.352;-6.356;2023-08-01T01:53:59;9.50;;;2.85;;
35530;SDS011;21637;53.352;-6.356;2023-08-01T01:56:25;11.23;;;2.95;;
35530;SDS011;21637;53.352;-6.356;2023-08-01T01:58:51;12.32;;;3.25;;
35530;SDS011;21637;53.352;-6.356;2023-08-01T02:01:16;11.20;;;3.15;;
35530;SDS011;21637;53.352;-6.356;2023-08-01T02:03:42;10.93;;;2.65;;
35530;SDS011;21637;53.352;-6.356;2023-08-01T02:06:08;6.38;;;2.35;;
35530;SDS011;21637;53.352;-6.356;2023-08-01T02:08:34;9.13;;;2.60;;
35530;SDS011;21637;53.352;-6.356;2023-08-01T02:10:59;10.18;;;3.38;;
35530;SDS011;21637;53.352;-6.356;2023-08-01T02:13:26;10.75;;;2.95;;
35530;SDS011;21637;53.352;-6.356;2023-08-01T02:15:52;10.55;;;2.78;;
35530;SDS011;21637;53.352;-6.356;2023-08-01T02:18:19;8.65;;;2.50;;
35530;SDS011;21637;53.352;-6.356;2023-08-01T02:20:44;10.18;;;3.15;;
35530;SDS011;21637;53.352;-6.356;2023-08-01T02:23:10;11.98;;;2.83;;
35530;SDS011;21637;53.352;-6.356;2023-08-01T02:25:39;10.15;;;2.65;;
35530;SDS011;21637;53.352;-6.356;2023-08-01T02:28:05;14.10;;;3.38;;
35530;SDS011;21637;53.352;-6.356;2023-08-01T02:30:31;12.93;;;3.22;;
35530;SDS011;21637;53.352;-6.356;2023-08-01T02:32:58;19.02;;;2.97;;
35530;SDS011;21637;53.352;-6.356;2023-08-01T02:35:23;15.45;;;3.00;;
35530;SDS011;21637;53.352;-6.356;2023-08-01T02:37:49;9.38;;;2.38;;
35530;SDS011;21637;53.352;-6.356;2023-08-01T02:40:14;13.45;;;3.20;;
35530;SDS011;21637;53.352;-6.356;2023-08-01T02:42:40;10.18;;;2.50;;
35530;SDS011;21637;53.352;-6.356;2023-08-01T02:45:06;8.63;;;2.63;;
35530;SDS011;21637;53.352;-6.356;2023-08-01T02:47:32;8.88;;;2.92;;
35530;SDS011;21637;53.352;-6.356;2023-08-01T02:49:58;10.15;;;2.40;;
35530;SDS011;21637;53.352;-6.356;2023-08-01T02:52:23;12.55;;;3.15;;
35530;SDS011;21637;53.352;-6.356;2023-08-01T02:54:49;10.35;;;3.75;;
35530;SDS011;21637;53.352;-6.356;2023-08-01T02:57:15;10.40;;;2.47;;
35530;SDS011;21637;53.352;-6.356;2023-08-01T02:59:40;11.00;;;3.08;;
35530;SDS011;21637;53.352;-6.356;2023-08-01T03:02:06;10.43;;;2.75;;
35530;SDS011;21637;53.352;-6.356;2023-08-01T03:04:32;11.75;;;2.60;;
35530;SDS011;21637;53.352;-6.356;2023-08-01T03:06:58;12.68;;;3.38;;
35530;SDS011;21637;53.352;-6.356;2023-08-01T03:09:23;11.35;;;3.17;;
35530;SDS011;21637;53.352;-6.356;2023-08-01T03:11:49;16.92;;;3.55;;
35530;SDS011;21637;53.352;-6.356;2023-08-01T03:14:15;14.27;;;2.83;;
35530;SDS011;21637;53.352;-6.356;2023-08-01T03:16:41;15.20;;;3.40;;
35530;SDS011;21637;53.352;-6.356;2023-08-01T03:19:07;12.68;;;2.80;;
35530;SDS011;21637;53.352;-6.356;2023-08-01T03:21:34;10.48;;;3.15;;
35530;SDS011;21637;53.352;-6.356;2023-08-01T03:24:00;13.48;;;2.88;;
35530;SDS011;21637;53.352;-6.356;2023-08-01T03:26:27;13.32;;;2.83;;
35530;SDS011;21637;53.352;-6.356;2023-08-01T03:28:53;10.55;;;2.72;;
35530;SDS011;21637;53.352;-6.356;2023-08-01T03:31:20;15.77;;;3.00;;
35530;SDS011;21637;53.352;-6.356;2023-08-01T03:33:49;14.95;;;2.75;;
35530;SDS011;21637;53.352;-6.356;2023-08-01T03:36:15;10.05;;;3.22;;
35530;SDS011;21637;53.352;-6.356;2023-08-01T03:38:41;10.68;;;2.63;;
35530;SDS011;21637;53.352;-6.356;2023-08-01T03:41:07;10.82;;;2.92;;
35530;SDS011;21637;53.352;-6.356;2023-08-01T03:43:33;15.30;;;3.03;;
35530;SDS011;21637;53.352;-6.356;2023-08-01T03:45:58;13.07;;;3.20;;
35530;SDS011;21637;53.352;-6.356;2023-08-01T03:48:24;11.05;;;3.30;;
35530;SDS011;21637;53.352;-6.356;2023-08-01T03:50:50;12.80;;;2.92;;
35530;SDS011;21637;53.352;-6.356;2023-08-01T03:53:15;10.18;;;2.80;;
35530;SDS011;21637;53.352;-6.356;2023-08-01T03:55:43;8.52;;;2.58;;
35530;SDS011;21637;53.352;-6.356;2023-08-01T03:58:09;18.13;;;3.33;;
35530;SDS011;21637;53.352;-6.356;2023-08-01T04:00:35;11.18;;;2.75;;
35530;SDS011;21637;53.352;-6.356;2023-08-01T04:03:01;12.93;;;3.13;;
35530;SDS011;21637;53.352;-6.356;2023-08-01T04:05:30;10.35;;;2.80;;
35530;SDS011;21637;53.352;-6.356;2023-08-01T04:07:56;13.15;;;2.75;;
35530;SDS011;21637;53.352;-6.356;2023-08-01T04:10:22;11.73;;;2.88;;
35530;SDS011;21637;53.352;-6.356;2023-08-01T04:12:48;12.57;;;2.47;;
35530;SDS011;21637;53.352;-6.356;2023-08-01T04:15:14;10.13;;;2.67;;
35530;SDS011;21637;53.352;-6.356;2023-08-01T04:17:40;15.00;;;3.08;;
35530;SDS011;21637;53.352;-6.356;2023-08-01T04:20:06;8.07;;;2.30;;
35530;SDS011;21637;53.352;-6.356;2023-08-01T04:22:32;10.20;;;3.08;;
35530;SDS011;21637;53.352;-6.356;2023-08-01T04:24:57;12.38;;;2.63;;
35530;SDS011;21637;53.352;-6.356;2023-08-01T04:27:23;12.93;;;2.72;;
35530;SDS011;21637;53.352;-6.356;2023-08-01T04:29:49;8.93;;;2.45;;
35530;SDS011;21637;53.352;-6.356;2023-08-01T04:32:14;10.55;;;2.83;;
35530;SDS011;21637;53.352;-6.356;2023-08-01T04:34:43;7.45;;;2.22;;
35530;SDS011;21637;53.352;-6.356;2023-08-01T04:37:09;12.60;;;2.63;;
35530;SDS011;21637;53.352;-6.356;2023-08-01T04:39:36;9.05;;;2.33;;
35530;SDS011;21637;53.352;-6.356;2023-08-01T04:42:02;12.07;;;2.33;;
35530;SDS011;21637;53.352;-6.356;2023-08-01T04:44:27;8.95;;;2.45;;
35530;SDS011;21637;53.352;-6.356;2023-08-01T04:46:54;8.95;;;2.28;;
35530;SDS011;21637;53.352;-6.356;2023-08-01T04:49:20;9.93;;;2.58;;
35530;SDS011;21637;53.352;-6.356;2023-08-01T04:51:48;11.15;;;2.50;;
35530;SDS011;21637;53.352;-6.356;2023-08-01T04:54:15;12.77;;;2.45;;
35530;SDS011;21637;53.352;-6.356;2023-08-01T04:56:40;13.95;;;3.10;;
35530;SDS011;21637;53.352;-6.356;2023-08-01T04:59:06;10.65;;;2.88;;
35530;SDS011;21637;53.352;-6.356;2023-08-01T05:01:32;8.32;;;2.45;;
35530;SDS011;21637;53.352;-6.356;2023-08-01T05:03:58;8.95;;;2.85;;
35530;SDS011;21637;53.352;-6.356;2023-08-01T05:06:24;11.52;;;2.78;;
35530;SDS011;21637;53.352;-6.356;2023-08-01T05:08:49;14.18;;;2.47;;
35530;SDS011;21637;53.352;-6.356;2023-08-01T05:11:15;9.05;;;2.50;;
35530;SDS011;21637;53.352;-6.356;2023-08-01T05:13:41;10.52;;;2.58;;
35530;SDS011;21637;53.352;-6.356;2023-08-01T05:16:06;9.07;;;2.40;;
35530;SDS011;21637;53.352;-6.356;2023-08-01T05:18:32;9.77;;;2.90;;
35530;SDS011;21637;53.352;-6.356;2023-08-01T05:20:58;16.95;;;2.60;;
35530;SDS011;21637;53.352;-6.356;2023-08-01T05:23:24;8.45;;;2.53;;
35530;SDS011;21637;53.352;-6.356;2023-08-01T05:25:49;12.20;;;2.78;;
35530;SDS011;21637;53.352;-6.356;2023-08-01T05:28:15;9.07;;;2.65;;
35530;SDS011;21637;53.352;-6.356;2023-08-01T05:30:41;10.32;;;2.53;;
35530;SDS011;21637;53.352;-6.356;2023-08-01T05:33:06;9.00;;;2.42;;
35530;SDS011;21637;53.352;-6.356;2023-08-01T05:35:32;11.63;;;2.97;;
35530;SDS011;21637;53.352;-6.356;2023-08-01T05:37:58;10.20;;;2.50;;
35530;SDS011;21637;53.352;-6.356;2023-08-01T05:40:24;10.90;;;2.92;;
35530;SDS011;21637;53.352;-6.356;2023-08-01T05:42:50;9.25;;;2.78;;
35530;SDS011;21637;53.352;-6.356;2023-08-01T05:45:16;11.70;;;2.88;;
35530;SDS011;21637;53.352;-6.356;2023-08-01T05:47:42;7.78;;;2.30;;
35530;SDS011;21637;53.352;-6.356;2023-08-01T05:50:08;7.05;;;2.20;;
35530;SDS011;21637;53.352;-6.356;2023-08-01T05:52:34;10.30;;;3.00;;
35530;SDS011;21637;53.352;-6.356;2023-08-01T05:55:00;12.93;;;2.67;;
35530;SDS011;21637;53.352;-6.356;2023-08-01T05:57:25;9.02;;;2.53;;
35530;SDS011;21637;53.352;-6.356;2023-08-01T05:59:51;8.90;;;2.70;;
35530;SDS011;21637;53.352;-6.356;2023-08-01T06:02:17;9.63;;;2.65;;
35530;SDS011;21637;53.352;-6.356;2023-08-01T06:04:42;13.73;;;2.88;;
35530;SDS011;21637;53.352;-6.356;2023-08-01T06:07:08;7.22;;;1.95;;
35530;SDS011;21637;53.352;-6.356;2023-08-01T06:09:34;13.23;;;2.80;;
35530;SDS011;21637;53.352;-6.356;2023-08-01T06:11:59;12.32;;;3.15;;
35530;SDS011;21637;53.352;-6.356;2023-08-01T06:14:25;8.98;;;2.00;;
35530;SDS011;21637;53.352;-6.356;2023-08-01T06:16:51;10.93;;;3.20;;
35530;SDS011;21637;53.352;-6.356;2023-08-01T06:19:17;11.77;;;2.17;;
35530;SDS011;21637;53.352;-6.356;2023-08-01T06:21:42;9.07;;;2.60;;
35530;SDS011;21637;53.352;-6.356;2023-08-01T06:24:08;5.47;;;1.80;;
35530;SDS011;21637;53.352;-6.356;2023-08-01T06:26:35;10.43;;;2.03;;
35530;SDS011;21637;53.352;-6.356;2023-08-01T06:29:01;7.53;;;2.22;;
35530;SDS011;21637;53.352;-6.356;2023-08-01T06:31:26;10.18;;;2.33;;
35530;SDS011;21637;53.352;-6.356;2023-08-01T06:33:52;8.65;;;3.03;;
35530;SDS011;21637;53.352;-6.356;2023-08-01T06:36:18;9.65;;;2.30;;
35530;SDS011;21637;53.352;-6.356;2023-08-01T06:38:43;12.57;;;2.25;;
35530;SDS011;21637;53.352;-6.356;2023-08-01T06:41:09;8.40;;;2.67;;
35530;SDS011;21637;53.352;-6.356;2023-08-01T06:43:35;8.52;;;2.22;;
35530;SDS011;21637;53.352;-6.356;2023-08-01T06:46:04;12.77;;;2.30;;
35530;SDS011;21637;53.352;-6.356;2023-08-01T06:48:30;12.10;;;1.92;;
35530;SDS011;21637;53.352;-6.356;2023-08-01T06:50:56;8.05;;;2.20;;
35530;SDS011;21637;53.352;-6.356;2023-08-01T06:53:22;6.35;;;2.40;;
35530;SDS011;21637;53.352;-6.356;2023-08-01T06:55:48;5.47;;;2.08;;
35530;SDS011;21637;53.352;-6.356;2023-08-01T06:58:13;9.73;;;2.78;;
35530;SDS011;21637;53.352;-6.356;2023-08-01T07:00:39;10.50;;;2.97;;
35530;SDS011;21637;53.352;-6.356;2023-08-01T07:03:05;11.00;;;2.40;;
35530;SDS011;21637;53.352;-6.356;2023-08-01T07:05:30;7.00;;;2.33;;
35530;SDS011;21637;53.352;-6.356;2023-08-01T07:07:56;6.25;;;2.55;;
35530;SDS011;21637;53.352;-6.356;2023-08-01T07:10:23;9.32;;;2.38;;
35530;SDS011;21637;53.352;-6.356;2023-08-01T07:12:48;8.40;;;2.35;;
35530;SDS011;21637;53.352;-6.356;2023-08-01T07:15:14;6.70;;;2.78;;
35530;SDS011;21637;53.352;-6.356;2023-08-01T07:17:40;8.43;;;2.90;;
35530;SDS011;21637;53.352;-6.356;2023-08-01T07:20:06;6.50;;;2.65;;
35530;SDS011;21637;53.352;-6.356;2023-08-01T07:22:31;8.88;;;3.90;;
35530;SDS011;21637;53.352;-6.356;2023-08-01T07:24:57;10.07;;;2.95;;
35530;SDS011;21637;53.352;-6.356;2023-08-01T07:27:23;11.05;;;2.90;;
35530;SDS011;21637;53.352;-6.356;2023-08-01T07:29:48;8.95;;;2.95;;
35530;SDS011;21637;53.352;-6.356;2023-08-01T07:32:14;8.65;;;2.28;;
35530;SDS011;21637;53.352;-6.356;2023-08-01T07:34:40;7.03;;;2.35;;
35530;SDS011;21637;53.352;-6.356;2023-08-01T07:37:06;8.32;;;2.38;;
35530;SDS011;21637;53.352;-6.356;2023-08-01T07:39:32;5.72;;;1.65;;
35530;SDS011;21637;53.352;-6.356;2023-08-01T07:41:59;5.47;;;1.83;;
35530;SDS011;21637;53.352;-6.356;2023-08-01T07:44:25;6.90;;;2.08;;
35530;SDS011;21637;53.352;-6.356;2023-08-01T07:46:51;8.30;;;2.45;;
35530;SDS011;21637;53.352;-6.356;2023-08-01T07:49:17;5.22;;;2.22;;
35530;SDS011;21637;53.352;-6.356;2023-08-01T07:51:43;7.13;;;2.00;;
35530;SDS011;21637;53.352;-6.356;2023-08-01T07:54:09;7.90;;;2.30;;
35530;SDS011;21637;53.352;-6.356;2023-08-01T07:56:35;7.78;;;2.33;;
35530;SDS011;21637;53.352;-6.356;2023-08-01T07:59:01;5.05;;;1.92;;
35530;SDS011;21637;53.352;-6.356;2023-08-01T08:01:27;3.72;;;1.80;;
35530;SDS011;21637;53.352;-6.356;2023-08-01T08:03:52;6.95;;;1.60;;
35530;SDS011;21637;53.352;-6.356;2023-08-01T08:06:18;6.75;;;2.30;;
35530;SDS011;21637;53.352;-6.356;2023-08-01T08:08:46;4.32;;;1.65;;
35530;SDS011;21637;53.352;-6.356;2023-08-01T08:11:12;4.82;;;1.80;;
35530;SDS011;21637;53.352;-6.356;2023-08-01T08:13:37;7.10;;;2.22;;
35530;SDS011;21637;53.352;-6.356;2023-08-01T08:16:04;7.35;;;2.50;;
35530;SDS011;21637;53.352;-6.356;2023-08-01T08:18:30;8.02;;;2.05;;
35530;SDS011;21637;53.352;-6.356;2023-08-01T08:20:56;6.82;;;2.13;;
35530;SDS011;21637;53.352;-6.356;2023-08-01T08:23:22;5.45;;;1.75;;
35530;SDS011;21637;53.352;-6.356;2023-08-01T08:25:48;4.35;;;1.70;;
35530;SDS011;21637;53.352;-6.356;2023-08-01T08:28:15;6.40;;;1.45;;
35530;SDS011;21637;53.352;-6.356;2023-08-01T08:30:41;4.15;;;1.75;;
35530;SDS011;21637;53.352;-6.356;2023-08-01T08:33:07;5.82;;;1.75;;
35530;SDS011;21637;53.352;-6.356;2023-08-01T08:35:33;6.15;;;1.90;;
35530;SDS011;21637;53.352;-6.356;2023-08-01T08:38:02;7.35;;;2.15;;
35530;SDS011;21637;53.352;-6.356;2023-08-01T08:40:29;5.60;;;1.80;;
35530;SDS011;21637;53.352;-6.356;2023-08-01T08:43:02;3.97;;;1.80;;
35530;SDS011;21637;53.352;-6.356;2023-08-01T08:45:34;5.03;;;1.60;;
35530;SDS011;21637;53.352;-6.356;2023-08-01T08:48:01;4.22;;;1.60;;
35530;SDS011;21637;53.352;-6.356;2023-08-01T08:50:33;2.85;;;1.38;;
35530;SDS011;21637;53.352;-6.356;2023-08-01T08:53:01;6.78;;;1.67;;
35530;SDS011;21637;53.352;-6.356;2023-08-01T08:55:27;3.95;;;1.30;;
35530;SDS011;21637;53.352;-6.356;2023-08-01T08:57:54;5.93;;;1.77;;
35530;SDS011;21637;53.352;-6.356;2023-08-01T09:00:21;2.60;;;1.25;;
35530;SDS011;21637;53.352;-6.356;2023-08-01T09:02:47;4.45;;;1.50;;
35530;SDS011;21637;53.352;-6.356;2023-08-01T09:05:13;2.80;;;1.30;;
35530;SDS011;21637;53.352;-6.356;2023-08-01T09:07:43;5.43;;;1.40;;
35530;SDS011;21637;53.352;-6.356;2023-08-01T09:10:13;4.65;;;1.98;;
35530;SDS011;21637;53.352;-6.356;2023-08-01T09:12:39;5.97;;;1.30;;
35530;SDS011;21637;53.352;-6.356;2023-08-01T09:15:04;5.50;;;1.40;;
35530;SDS011;21637;53.352;-6.356;2023-08-01T09:17:31;5.95;;;1.30;;
35530;SDS011;21637;53.352;-6.356;2023-08-01T09:20:06;2.72;;;1.00;;
35530;SDS011;21637;53.352;-6.356;2023-08-01T09:22:45;2.97;;;0.98;;
35530;SDS011;21637;53.352;-6.356;2023-08-01T09:25:12;6.28;;;1.50;;
35530;SDS011;21637;53.352;-6.356;2023-08-01T09:27:38;2.33;;;1.10;;
35530;SDS011;21637;53.352;-6.356;2023-08-01T09:30:11;2.60;;;0.90;;
35530;SDS011;21637;53.352;-6.356;2023-08-01T09:32:50;4.60;;;1.33;;
35530;SDS011;21637;53.352;-6.356;2023-08-01T09:35:17;5.30;;;1.30;;
35530;SDS011;21637;53.352;-6.356;2023-08-01T09:37:43;4.45;;;1.17;;
35530;SDS011;21637;53.352;-6.356;2023-08-01T09:40:09;5.82;;;1.23;;
35530;SDS011;21637;53.352;-6.356;2023-08-01T09:42:39;2.65;;;0.82;;
35530;SDS011;21637;53.352;-6.356;2023-08-01T09:45:14;5.00;;;2.53;;
35530;SDS011;21637;53.352;-6.356;2023-08-01T09:47:41;5.22;;;1.73;;
35530;SDS011;21637;53.352;-6.356;2023-08-01T09:50:11;4.45;;;1.45;;
35530;SDS011;21637;53.352;-6.356;2023-08-01T09:52:45;2.80;;;1.00;;
35530;SDS011;21637;53.352;-6.356;2023-08-01T09:55:17;1.88;;;0.93;;
35530;SDS011;21637;53.352;-6.356;2023-08-01T09:57:59;2.07;;;0.80;;
35530;SDS011;21637;53.352;-6.356;2023-08-01T10:00:26;2.47;;;1.13;;
35530;SDS011;21637;53.352;-6.356;2023-08-01T10:02:53;2.47;;;0.90;;
35530;SDS011;21637;53.352;-6.356;2023-08-01T10:05:22;3.00;;;1.02;;
35530;SDS011;21637;53.352;-6.356;2023-08-01T10:07:48;2.28;;;0.70;;
35530;SDS011;21637;53.352;-6.356;2023-08-01T10:10:18;2.67;;;0.80;;
35530;SDS011;21637;53.352;-6.356;2023-08-01T10:12:45;3.72;;;0.88;;
35530;SDS011;21637;53.352;-6.356;2023-08-01T10:15:15;3.42;;;1.10;;
35530;SDS011;21637;53.352;-6.356;2023-08-01T10:17:41;2.85;;;0.55;;
35530;SDS011;21637;53.352;-6.356;2023-08-01T10:20:07;2.95;;;1.05;;
35530;SDS011;21637;53.352;-6.356;2023-08-01T10:22:33;1.58;;;0.80;;
35530;SDS011;21637;53.352;-6.356;2023-08-01T10:25:00;4.38;;;0.90;;
35530;SDS011;21637;53.352;-6.356;2023-08-01T10:27:26;2.58;;;0.77;;
35530;SDS011;21637;53.352;-6.356;2023-08-01T10:29:58;2.63;;;1.15;;
35530;SDS011;21637;53.352;-6.356;2023-08-01T10:32:32;3.03;;;0.77;;
35530;SDS011;21637;53.352;-6.356;2023-08-01T10:34:59;2.83;;;0.75;;
35530;SDS011;21637;53.352;-6.356;2023-08-01T10:37:26;2.10;;;1.10;;
35530;SDS011;21637;53.352;-6.356;2023-08-01T10:40:03;2.60;;;1.10;;
35530;SDS011;21637;53.352;-6.356;2023-08-01T10:42:39;3.22;;;0.98;;
35530;SDS011;21637;53.352;-6.356;2023-08-01T10:45:06;2.13;;;0.82;;
35530;SDS011;21637;53.352;-6.356;2023-08-01T10:47:44;2.45;;;1.00;;
35530;SDS011;21637;53.352;-6.356;2023-08-01T10:50:16;1.73;;;0.60;;
35530;SDS011;21637;53.352;-6.356;2023-08-01T10:52:42;5.30;;;0.80;;
35530;SDS011;21637;53.352;-6.356;2023-08-01T10:55:09;2.05;;;0.80;;
35530;SDS011;21637;53.352;-6.356;2023-08-01T10:57:39;2.20;;;0.73;;
35530;SDS011;21637;53.352;-6.356;2023-08-01T11:00:15;2.13;;;0.68;;
35530;SDS011;21637;53.352;-6.356;2023-08-01T11:02:48;1.73;;;0.60;;
35530;SDS011;21637;53.352;-6.356;2023-08-01T11:05:17;2.70;;;0.65;;
35530;SDS011;21637;53.352;-6.356;2023-08-01T11:07:52;3.40;;;0.75;;
35530;SDS011;21637;53.352;-6.356;2023-08-01T11:10:29;2.38;;;0.77;;
35530;SDS011;21637;53.352;-6.356;2023-08-01T11:12:56;3.95;;;0.52;;
35530;SDS011;21637;53.352;-6.356;2023-08-01T11:15:23;0.93;;;0.50;;
35530;SDS011;21637;53.352;-6.356;2023-08-01T11:17:50;2.00;;;0.57;;
35530;SDS011;21637;53.352;-6.356;2023-08-01T11:20:19;2.00;;;0.52;;
35530;SDS011;21637;53.352;-6.356;2023-08-01T11:25:39;2.13;;;0.60;;
35530;SDS011;21637;53.352;-6.356;2023-08-01T11:28:10;1.50;;;0.60;;
35530;SDS011;21637;53.352;-6.356;2023-08-01T11:30:38;0.80;;;0.50;;
35530;SDS011;21637;53.352;-6.356;2023-08-01T11:33:18;2.30;;;0.50;;
35530;SDS011;21637;53.352;-6.356;2023-08-01T11:35:46;2.20;;;0.60;;
35530;SDS011;21637;53.352;-6.356;2023-08-01T11:38:15;4.95;;;0.63;;
35530;SDS011;21637;53.352;-6.356;2023-08-01T11:40:41;3.65;;;0.70;;
35530;SDS011;21637;53.352;-6.356;2023-08-01T11:43:07;3.45;;;0.70;;
35530;SDS011;21637;53.352;-6.356;2023-08-01T11:45:33;2.88;;;0.80;;
35530;SDS011;21637;53.352;-6.356;2023-08-01T11:47:59;4.32;;;0.80;;
35530;SDS011;21637;53.352;-6.356;2023-08-01T11:50:25;3.13;;;0.50;;
35530;SDS011;21637;53.352;-6.356;2023-08-01T11:52:51;1.52;;;0.60;;
35530;SDS011;21637;53.352;-6.356;2023-08-01T11:55:35;2.40;;;0.55;;
35530;SDS011;21637;53.352;-6.356;2023-08-01T11:58:02;4.78;;;0.77;;
35530;SDS011;21637;53.352;-6.356;2023-08-01T12:00:29;1.88;;;0.45;;
35530;SDS011;21637;53.352;-6.356;2023-08-01T12:03:05;3.53;;;0.50;;
35530;SDS011;21637;53.352;-6.356;2023-08-01T12:05:32;1.88;;;0.50;;
35530;SDS011;21637;53.352;-6.356;2023-08-01T12:08:11;2.20;;;0.60;;
35530;SDS011;21637;53.352;-6.356;2023-08-01T12:10:40;6.30;;;0.80;;
35530;SDS011;21637;53.352;-6.356;2023-08-01T12:13:23;2.55;;;0.40;;
35530;SDS011;21637;53.352;-6.356;2023-08-01T12:15:50;1.60;;;0.55;;
35530;SDS011;21637;53.352;-6.356;2023-08-01T12:18:21;1.13;;;0.50;;
35530;SDS011;21637;53.352;-6.356;2023-08-01T12:20:48;0.85;;;0.40;;
35530;SDS011;21637;53.352;-6.356;2023-08-01T12:23:13;1.02;;;0.50;;
35530;SDS011;21637;53.352;-6.356;2023-08-01T12:25:39;2.65;;;0.40;;
35530;SDS011;21637;53.352;-6.356;2023-08-01T12:28:05;1.90;;;0.40;;
35530;SDS011;21637;53.352;-6.356;2023-08-01T12:30:30;1.70;;;0.50;;
35530;SDS011;21637;53.352;-6.356;2023-08-01T12:32:56;2.88;;;0.70;;
35530;SDS011;21637;53.352;-6.356;2023-08-01T12:35:22;1.05;;;0.68;;
35530;SDS011;21637;53.352;-6.356;2023-08-01T12:37:47;2.95;;;0.63;;
35530;SDS011;21637;53.352;-6.356;2023-08-01T12:40:13;1.30;;;0.68;;
35530;SDS011;21637;53.352;-6.356;2023-08-01T12:42:39;1.05;;;0.40;;
35530;SDS011;21637;53.352;-6.356;2023-08-01T12:45:05;1.38;;;0.60;;
35530;SDS011;21637;53.352;-6.356;2023-08-01T12:47:31;1.60;;;0.60;;
35530;SDS011;21637;53.352;-6.356;2023-08-01T12:49:56;2.10;;;0.68;;
35530;SDS011;21637;53.352;-6.356;2023-08-01T12:52:22;1.42;;;0.50;;
35530;SDS011;21637;53.352;-6.356;2023-08-01T12:54:51;1.38;;;0.43;;
35530;SDS011;21637;53.352;-6.356;2023-08-01T12:57:17;0.88;;;0.40;;
35530;SDS011;21637;53.352;-6.356;2023-08-01T12:59:43;0.57;;;0.30;;
35530;SDS011;21637;53.352;-6.356;2023-08-01T13:02:09;1.10;;;0.40;;
35530;SDS011;21637;53.352;-6.356;2023-08-01T13:04:35;1.15;;;0.50;;
35530;SDS011;21637;53.352;-6.356;2023-08-01T13:07:01;2.58;;;0.60;;
35530;SDS011;21637;53.352;-6.356;2023-08-01T13:09:26;3.53;;;0.45;;
35530;SDS011;21637;53.352;-6.356;2023-08-01T13:11:52;2.47;;;0.70;;
35530;SDS011;21637;53.352;-6.356;2023-08-01T13:14:18;1.83;;;0.50;;
35530;SDS011;21637;53.352;-6.356;2023-08-01T13:16:44;2.53;;;0.52;;
35530;SDS011;21637;53.352;-6.356;2023-08-01T13:19:09;2.70;;;0.40;;
35530;SDS011;21637;53.352;-6.356;2023-08-01T13:21:35;2.38;;;0.70;;
35530;SDS011;21637;53.352;-6.356;2023-08-01T13:24:01;2.45;;;0.68;;
35530;SDS011;21637;53.352;-6.356;2023-08-01T13:26:30;2.17;;;0.50;;
35530;SDS011;21637;53.352;-6.356;2023-08-01T13:28:56;2.15;;;0.45;;
35530;SDS011;21637;53.352;-6.356;2023-08-01T13:31:23;2.90;;;0.60;;
35530;SDS011;21637;53.352;-6.356;2023-08-01T13:33:49;2.75;;;0.55;;
35530;SDS011;21637;53.352;-6.356;2023-08-01T13:36:14;3.45;;;0.50;;
35530;SDS011;21637;53.352;-6.356;2023-08-01T13:38:42;0.98;;;0.35;;
35530;SDS011;21637;53.352;-6.356;2023-08-01T13:41:08;0.93;;;0.45;;
35530;SDS011;21637;53.352;-6.356;2023-08-01T13:43:33;3.50;;;0.50;;
35530;SDS011;21637;53.352;-6.356;2023-08-01T13:45:59;1.33;;;0.40;;
35530;SDS011;21637;53.352;-6.356;2023-08-01T13:48:25;4.38;;;0.70;;
35530;SDS011;21637;53.352;-6.356;2023-08-01T13:50:51;1.92;;;0.68;;
35530;SDS011;21637;53.352;-6.356;2023-08-01T13:53:17;0.93;;;0.45;;
35530;SDS011;21637;53.352;-6.356;2023-08-01T13:55:43;1.13;;;0.30;;
35530;SDS011;21637;53.352;-6.356;2023-08-01T13:58:09;1.65;;;0.50;;
35530;SDS011;21637;53.352;-6.356;2023-08-01T14:00:35;1.60;;;0.50;;
35530;SDS011;21637;53.352;-6.356;2023-08-01T14:03:00;1.65;;;0.60;;
35530;SDS011;21637;53.352;-6.356;2023-08-01T14:05:27;1.27;;;0.43;;
35530;SDS011;21637;53.352;-6.356;2023-08-01T14:07:53;1.02;;;0.40;;
35530;SDS011;21637;53.352;-6.356;2023-08-01T14:10:19;1.40;;;0.22;;
35530;SDS011;21637;53.352;-6.356;2023-08-01T14:12:45;0.65;;;0.20;;
35530;SDS011;21637;53.352;-6.356;2023-08-01T14:15:10;1.83;;;0.45;;
35530;SDS011;21637;53.352;-6.356;2023-08-01T14:17:37;2.75;;;0.50;;
35530;SDS011;21637;53.352;-6.356;2023-08-01T14:20:04;1.35;;;0.30;;
35530;SDS011;21637;53.352;-6.356;2023-08-01T14:22:30;1.38;;;0.30;;
35530;SDS011;21637;53.352;-6.356;2023-08-01T14:24:55;0.55;;;0.28;;
35530;SDS011;21637;53.352;-6.356;2023-08-01T14:27:21;0.32;;;0.10;;
35530;SDS011;21637;53.352;-6.356;2023-08-01T14:29:47;0.75;;;0.30;;